createdAt,value
2023-04-20T00:02:07.251Z,92.64
2023-04-20T00:04:40.306Z,92.89
2023-04-20T00:07:13.585Z,92.43
2023-04-20T00:09:47.958Z,92.07
2023-04-20T00:12:21.053Z,92.32
2023-04-20T00:14:54.706Z,93.64
2023-04-20T00:17:27.581Z,94.90
2023-04-20T00:20:00.616Z,95.19
2023-04-20T00:22:34.004Z,95.75
2023-04-20T00:25:09.581Z,96.49
2023-04-20T00:27:42.466Z,95.75
2023-04-20T00:30:16.384Z,96.19
2023-04-20T00:32:49.577Z,96.96
2023-04-20T00:35:22.618Z,97.99
2023-04-20T00:37:57.725Z,96.13
2023-04-20T00:40:33.681Z,94.95
2023-04-20T00:43:14.250Z,93.84
2023-04-20T00:45:47.500Z,94.25
2023-04-20T00:48:21.022Z,95.06
2023-04-20T00:50:54.538Z,95.00
2023-04-20T00:53:27.540Z,95.39
2023-04-20T00:56:03.934Z,94.97
2023-04-20T00:58:36.979Z,94.70
2023-04-20T01:01:11.567Z,94.04
2023-04-20T01:03:45.255Z,93.64
2023-04-20T01:06:18.983Z,93.11
2023-04-20T01:08:53.048Z,93.32
2023-04-20T01:11:27.623Z,92.58
2023-04-20T01:14:00.660Z,92.40
2023-04-20T01:16:34.978Z,92.36
2023-04-20T01:19:08.370Z,92.30
2023-04-20T01:21:41.904Z,92.27
2023-04-20T01:24:16.005Z,92.55
2023-04-20T01:26:48.887Z,92.75
2023-04-20T01:29:21.900Z,92.83
2023-04-20T01:31:54.904Z,94.35
2023-04-20T01:34:28.130Z,94.58
2023-04-20T01:37:01.159Z,95.38
2023-04-20T01:39:36.308Z,93.45
2023-04-20T01:42:09.347Z,93.71
2023-04-20T01:44:42.319Z,94.20
2023-04-20T01:47:15.740Z,95.65
2023-04-20T01:49:48.735Z,97.04
2023-04-20T01:52:21.526Z,98.39
2023-04-20T01:54:55.988Z,99.04
2023-04-20T01:57:30.863Z,98.35
2023-04-20T02:00:04.551Z,97.61
2023-04-20T02:02:47.276Z,98.01
2023-04-20T02:05:21.862Z,99.06
2023-04-20T02:07:55.203Z,99.60
2023-04-20T02:10:29.343Z,98.39
2023-04-20T02:13:02.177Z,98.06
2023-04-20T02:15:37.999Z,96.88
2023-04-20T02:18:10.912Z,95.85
2023-04-20T02:20:43.941Z,95.96
2023-04-20T02:23:16.815Z,97.23
2023-04-20T02:25:51.042Z,98.00
2023-04-20T02:28:23.927Z,97.30
2023-04-20T02:30:56.735Z,96.68
2023-04-20T02:33:29.929Z,96.19
2023-04-20T02:36:03.018Z,96.35
2023-04-20T02:38:36.281Z,95.46
2023-04-20T02:41:10.680Z,94.24
2023-04-20T02:43:43.880Z,94.08
2023-04-20T02:46:18.810Z,94.91
2023-04-20T02:48:51.820Z,95.54
2023-04-20T02:51:25.216Z,94.24
2023-04-20T02:53:59.813Z,93.37
2023-04-20T02:56:35.970Z,93.08
2023-04-20T02:59:13.064Z,94.94
2023-04-20T03:01:51.881Z,95.97
2023-04-20T03:04:27.936Z,97.13
2023-04-20T03:07:21.242Z,96.33
2023-04-20T03:09:54.896Z,94.51
2023-04-20T03:12:33.252Z,94.20
2023-04-20T03:15:28.970Z,93.27
2023-04-20T03:18:09.238Z,93.08
2023-04-20T03:20:42.450Z,94.88
2023-04-20T03:23:15.402Z,94.91
2023-04-20T03:25:49.255Z,94.50
2023-04-20T03:28:37.343Z,95.39
2023-04-20T03:31:10.338Z,95.01
2023-04-20T03:33:43.293Z,94.40
2023-04-20T03:36:16.240Z,94.30
2023-04-20T03:38:49.198Z,95.26
2023-04-20T03:41:22.201Z,94.47
2023-04-20T03:43:56.588Z,93.17
2023-04-20T03:46:29.627Z,92.77
2023-04-20T03:49:03.338Z,92.67
2023-04-20T03:51:36.105Z,94.01
2023-04-20T03:54:09.986Z,95.20
2023-04-20T03:56:44.622Z,95.25
2023-04-20T03:59:20.033Z,95.41
2023-04-20T04:01:55.027Z,95.25
2023-04-20T04:04:28.467Z,95.88
2023-04-20T04:07:03.464Z,95.60
2023-04-20T04:09:36.233Z,94.95
2023-04-20T04:12:09.394Z,92.80
2023-04-20T04:14:43.921Z,90.83
2023-04-20T04:17:18.963Z,90.48
2023-04-20T04:19:52.093Z,90.08
2023-04-20T04:22:25.436Z,90.13
2023-04-20T04:25:18.678Z,90.88
2023-04-20T04:27:51.733Z,91.35
2023-04-20T04:30:26.097Z,92.03
2023-04-20T04:32:59.769Z,91.94
2023-04-20T04:35:34.632Z,92.36
2023-04-20T04:38:07.928Z,92.89
2023-04-20T04:40:46.061Z,93.85
2023-04-20T04:43:20.137Z,94.86
2023-04-20T04:46:10.887Z,95.33
2023-04-20T04:48:43.843Z,96.06
2023-04-20T04:51:17.165Z,95.78
2023-04-20T04:53:50.236Z,95.39
2023-04-20T04:56:23.630Z,95.60
2023-04-20T04:58:56.611Z,95.62
2023-04-20T05:01:30.894Z,95.58
2023-04-20T05:04:04.011Z,95.79
2023-04-20T05:06:39.851Z,96.19
2023-04-20T05:09:12.868Z,96.03
2023-04-20T05:11:45.594Z,96.47
2023-04-20T05:14:18.396Z,96.61
2023-04-20T05:16:52.609Z,97.04
2023-04-20T05:19:26.079Z,96.80
2023-04-20T05:21:58.878Z,96.39
2023-04-20T05:24:31.708Z,96.43
2023-04-20T05:27:04.614Z,96.61
2023-04-20T05:29:37.381Z,96.99
2023-04-20T05:32:11.657Z,97.71
2023-04-20T05:34:44.469Z,97.95
2023-04-20T05:37:17.385Z,98.04
2023-04-20T05:39:50.179Z,98.38
2023-04-20T05:42:23.259Z,99.53
2023-04-20T05:44:56.422Z,99.47
2023-04-20T05:47:30.893Z,100.00
2023-04-20T05:50:03.960Z,100.00
2023-04-20T05:52:36.762Z,100.00
2023-04-20T05:55:10.864Z,100.00
2023-04-20T05:57:43.713Z,100.00
2023-04-20T06:00:17.926Z,100.00
2023-04-20T06:02:52.646Z,100.00
2023-04-20T06:05:25.977Z,100.00
2023-04-20T06:07:58.931Z,99.45
2023-04-20T06:10:34.403Z,99.36
2023-04-20T06:13:08.224Z,98.74
2023-04-20T06:15:41.576Z,98.23
2023-04-20T06:18:16.444Z,96.63
2023-04-20T06:20:49.341Z,96.02
2023-04-20T06:23:22.335Z,95.45
2023-04-20T06:25:55.284Z,93.45
2023-04-20T06:28:28.495Z,93.19
2023-04-20T06:31:01.386Z,92.19
2023-04-20T06:33:36.059Z,91.60
2023-04-20T06:36:09.077Z,91.37
2023-04-20T06:38:41.853Z,91.05
2023-04-20T06:41:15.466Z,91.05
2023-04-20T06:43:48.457Z,89.97
2023-04-20T06:46:21.589Z,89.48
2023-04-20T06:48:55.752Z,88.71
2023-04-20T06:51:29.208Z,88.61
2023-04-20T06:54:02.045Z,86.95
2023-04-20T06:56:35.821Z,86.58
2023-04-20T06:59:08.624Z,85.76
2023-04-20T07:01:41.503Z,84.72
2023-04-20T07:04:16.057Z,84.22
2023-04-20T07:06:53.831Z,83.51
2023-04-20T07:09:27.093Z,83.35
2023-04-20T07:12:00.153Z,82.66
2023-04-20T07:14:32.939Z,81.96
2023-04-20T07:17:05.726Z,81.91
2023-04-20T07:19:40.060Z,80.77
2023-04-20T07:22:12.835Z,80.67
2023-04-20T07:24:45.949Z,80.69
2023-04-20T07:27:18.956Z,80.31
2023-04-20T07:29:52.313Z,78.64
2023-04-20T07:32:25.241Z,78.41
2023-04-20T07:34:59.392Z,78.30
2023-04-20T07:37:32.710Z,78.79
2023-04-20T07:40:07.144Z,78.24
2023-04-20T07:42:40.325Z,78.31
2023-04-20T07:45:14.425Z,77.28
2023-04-20T07:47:51.324Z,75.95
2023-04-20T07:50:27.323Z,76.51
2023-04-20T07:53:00.531Z,76.75
2023-04-20T07:55:33.863Z,75.84
2023-04-20T07:58:06.767Z,75.28
2023-04-20T08:00:39.645Z,75.38
2023-04-20T08:03:12.789Z,74.48
2023-04-20T08:05:48.177Z,74.68
2023-04-20T08:08:21.316Z,74.99
2023-04-20T08:10:54.061Z,73.25
2023-04-20T08:13:27.607Z,72.12
2023-04-20T08:16:00.767Z,72.70
2023-04-20T08:18:33.869Z,73.05
2023-04-20T08:21:08.229Z,72.37
2023-04-20T08:23:41.161Z,73.04
2023-04-20T08:26:16.235Z,71.45
2023-04-20T08:28:49.056Z,71.54
2023-04-20T08:31:22.441Z,71.35
2023-04-20T08:33:55.451Z,70.97
2023-04-20T08:36:29.679Z,71.43
2023-04-20T08:39:09.214Z,71.33
2023-04-20T08:41:42.307Z,71.67
2023-04-20T08:44:15.288Z,71.52
2023-04-20T08:46:49.680Z,71.85
2023-04-20T08:49:22.563Z,70.40
2023-04-20T08:51:56.730Z,70.62
2023-04-20T08:54:29.753Z,69.05
2023-04-20T08:57:02.577Z,69.10
2023-04-20T08:59:38.076Z,66.83
2023-04-20T09:02:12.679Z,67.04
2023-04-20T09:30:52.052Z,64.72
2023-04-20T09:33:29.437Z,65.32
2023-04-20T09:36:06.434Z,65.70
2023-04-20T09:38:39.298Z,65.18
2023-04-20T09:41:12.422Z,63.98
2023-04-20T09:43:46.374Z,62.17
2023-04-20T09:50:50.993Z,60.17
2023-04-20T09:53:24.650Z,61.15
2023-04-20T09:55:59.424Z,59.74
2023-04-20T09:58:33.584Z,60.55
2023-04-20T10:01:10.979Z,60.09
2023-04-20T10:03:44.345Z,59.90
2023-04-20T10:06:23.334Z,59.27
2023-04-20T10:08:56.460Z,58.03
2023-04-20T10:11:40.450Z,57.44
2023-04-20T10:14:20.692Z,57.06
2023-04-20T10:17:01.604Z,56.39
2023-04-20T10:19:39.768Z,56.13
2023-04-20T10:22:26.242Z,55.80
2023-04-20T10:24:59.100Z,57.84
2023-04-20T10:27:32.630Z,57.29
2023-04-20T10:30:11.341Z,57.11
2023-04-20T10:32:44.291Z,55.87
2023-04-20T10:35:17.214Z,55.76
2023-04-20T10:37:52.585Z,56.18
2023-04-20T10:40:27.545Z,54.99
2023-04-20T10:43:00.342Z,55.51
2023-04-20T10:45:38.425Z,55.89
2023-04-20T10:48:16.004Z,54.29
2023-04-20T10:50:50.286Z,54.67
2023-04-20T10:53:27.598Z,53.22
2023-04-20T10:56:01.217Z,54.00
2023-04-20T10:58:34.108Z,54.30
2023-04-20T11:01:07.702Z,52.86
2023-04-20T11:03:41.063Z,53.69
2023-04-20T11:06:14.263Z,53.81
2023-04-20T11:08:48.465Z,53.85
2023-04-20T11:11:24.779Z,53.27
2023-04-20T11:14:08.043Z,52.51
2023-04-20T11:16:50.715Z,52.76
2023-04-20T11:19:26.318Z,52.64
2023-04-20T11:21:59.824Z,53.79
2023-04-20T11:24:35.893Z,53.41
2023-04-20T11:27:08.751Z,53.03
2023-04-20T11:29:41.749Z,53.50
2023-04-20T11:32:19.460Z,53.51
2023-04-20T11:35:06.562Z,53.45
2023-04-20T11:37:47.963Z,52.02
2023-04-20T11:40:22.537Z,53.38
2023-04-20T11:42:55.371Z,53.45
2023-04-20T11:45:28.890Z,50.82
2023-04-20T11:48:02.339Z,51.82
2023-04-20T11:50:35.303Z,51.27
2023-04-20T11:53:09.932Z,52.41
2023-04-20T11:55:44.226Z,52.23
2023-04-20T11:58:16.987Z,52.81
2023-04-20T12:00:49.797Z,53.54
2023-04-20T12:03:22.777Z,52.86
2023-04-20T12:05:55.905Z,54.24
2023-04-20T12:08:28.870Z,55.02
2023-04-20T12:11:02.969Z,55.55
2023-04-20T12:13:35.726Z,56.71
2023-04-20T12:16:09.171Z,57.34
2023-04-20T12:18:42.835Z,58.72
2023-04-20T12:21:15.718Z,57.90
2023-04-20T12:23:49.667Z,58.28
2023-04-20T12:26:34.586Z,58.90
2023-04-20T12:29:10.679Z,59.83
2023-04-20T12:31:43.541Z,59.78
2023-04-20T12:34:17.395Z,61.18
2023-04-20T12:36:50.381Z,61.75
2023-04-20T12:39:23.246Z,62.25
2023-04-20T12:41:58.109Z,64.18
2023-04-20T12:44:30.998Z,64.86
2023-04-20T12:47:03.906Z,65.34
2023-04-20T12:49:36.893Z,65.30
2023-04-20T12:52:09.841Z,66.00
2023-04-20T12:54:44.086Z,66.13
2023-04-20T12:57:18.602Z,66.10
2023-04-20T12:59:51.401Z,66.53
2023-04-20T13:02:24.449Z,67.05
2023-04-20T13:04:57.470Z,67.11
2023-04-20T13:07:31.022Z,67.12
2023-04-20T13:10:04.557Z,67.57
2023-04-20T13:12:38.789Z,68.45
2023-04-20T13:15:13.093Z,69.38
2023-04-20T13:17:46.010Z,70.04
2023-04-20T13:20:18.841Z,68.76
2023-04-20T13:22:57.693Z,69.01
2023-04-20T13:25:33.491Z,68.86
2023-04-20T13:28:07.951Z,68.78
2023-04-20T13:30:40.873Z,68.98
2023-04-20T13:33:13.716Z,70.02
2023-04-20T13:35:46.626Z,70.51
2023-04-20T13:38:22.224Z,70.04
2023-04-20T13:40:55.623Z,70.17
2023-04-20T13:43:29.925Z,69.73
2023-04-20T13:46:02.780Z,69.74
2023-04-20T13:48:35.621Z,69.56
2023-04-20T13:51:08.512Z,69.49
2023-04-20T13:53:41.400Z,69.85
2023-04-20T13:56:14.255Z,69.80
2023-04-20T13:58:48.513Z,70.04
2023-04-20T14:01:21.950Z,69.46
2023-04-20T14:03:55.204Z,69.68
2023-04-20T14:06:28.926Z,69.06
2023-04-20T14:09:01.872Z,69.41
2023-04-20T14:11:34.892Z,69.76
2023-04-20T14:14:09.151Z,69.80
2023-04-20T14:16:45.555Z,70.65
2023-04-20T14:19:18.376Z,69.50
2023-04-20T14:21:51.639Z,69.86
2023-04-20T14:24:24.634Z,69.45
2023-04-20T14:26:58.279Z,69.29
2023-04-20T14:29:32.483Z,68.80
2023-04-20T14:32:05.367Z,69.57
2023-04-20T14:34:38.357Z,68.93
2023-04-20T14:37:11.264Z,68.93
2023-04-20T14:39:44.085Z,69.75
2023-04-20T14:42:17.009Z,69.91
2023-04-20T14:44:51.373Z,69.70
2023-04-20T14:47:24.591Z,69.95
2023-04-20T14:49:57.444Z,69.65
2023-04-20T14:52:30.263Z,69.35
2023-04-20T14:55:03.351Z,69.22
2023-04-20T14:57:36.292Z,69.45
2023-04-20T15:00:12.147Z,70.05
2023-04-20T15:02:45.040Z,69.85
2023-04-20T15:05:18.205Z,69.78
2023-04-20T15:07:51.650Z,71.31
2023-04-20T15:10:24.499Z,71.11
2023-04-20T15:12:57.305Z,71.84
2023-04-20T15:15:47.057Z,71.67
2023-04-20T15:18:20.962Z,71.06
2023-04-20T15:20:53.827Z,72.47
2023-04-20T15:23:26.598Z,73.17
2023-04-20T15:25:59.542Z,72.52
2023-04-20T15:28:32.293Z,72.51
2023-04-20T15:31:08.795Z,73.09
2023-04-20T15:33:44.045Z,72.81
2023-04-20T15:36:19.497Z,72.69
2023-04-20T15:38:53.483Z,72.54
2023-04-20T15:41:27.053Z,71.09
2023-04-20T15:43:59.797Z,72.43
2023-04-20T15:46:34.096Z,73.37
2023-04-20T15:49:06.942Z,72.89
2023-04-20T15:51:40.590Z,72.90
2023-04-20T15:54:14.393Z,73.27
2023-04-20T15:56:47.155Z,73.64
2023-04-20T15:59:20.021Z,73.51
2023-04-20T16:01:54.392Z,74.08
2023-04-20T16:04:27.317Z,73.62
2023-04-20T16:07:00.239Z,74.25
2023-04-20T16:09:33.022Z,73.55
2023-04-20T16:12:06.414Z,73.32
2023-04-20T16:14:39.254Z,73.99
2023-04-20T16:17:14.283Z,74.19
2023-04-20T16:19:47.068Z,73.93
2023-04-20T16:22:20.139Z,73.48
2023-04-20T16:24:53.121Z,74.37
2023-04-20T16:27:26.747Z,74.05
2023-04-20T16:29:59.682Z,74.28
2023-04-20T16:32:34.615Z,74.21
2023-04-20T16:35:09.040Z,74.51
2023-04-20T16:37:41.893Z,74.12
2023-04-20T16:40:14.729Z,73.63
2023-04-20T16:42:47.675Z,73.47
2023-04-20T16:45:22.568Z,73.70
2023-04-20T16:47:58.332Z,74.31
2023-04-20T16:50:32.226Z,74.77
2023-04-20T16:53:05.409Z,75.17
2023-04-20T16:55:38.257Z,75.46
2023-04-20T16:58:11.084Z,75.46
2023-04-20T17:00:44.065Z,74.74
2023-04-20T17:03:18.535Z,74.47
2023-04-20T17:05:51.533Z,75.00
2023-04-20T17:08:27.166Z,75.47
2023-04-20T17:11:01.794Z,79.28
2023-04-20T17:13:34.688Z,81.47
2023-04-20T17:16:07.631Z,81.77
2023-04-20T17:18:42.112Z,82.49
2023-04-20T17:21:15.017Z,83.22
2023-04-20T17:23:47.967Z,83.96
2023-04-20T17:26:20.797Z,85.30
2023-04-20T17:28:53.634Z,86.16
2023-04-20T17:31:26.822Z,86.36
2023-04-20T17:34:01.119Z,88.15
2023-04-20T17:36:34.364Z,88.11
2023-04-20T17:39:07.143Z,87.35
2023-04-20T17:41:39.959Z,88.04
2023-04-20T17:44:12.861Z,89.30
2023-04-20T17:46:45.698Z,90.58
2023-04-20T17:49:19.830Z,89.32
2023-04-20T17:51:52.596Z,89.25
2023-04-20T17:54:25.447Z,89.13
2023-04-20T17:56:58.224Z,88.55
2023-04-20T17:59:31.370Z,88.49
2023-04-20T18:02:04.300Z,88.47
2023-04-20T18:08:58.197Z,91.30
2023-04-20T18:11:30.968Z,91.24
2023-04-20T18:14:04.249Z,90.04
2023-04-20T18:16:37.110Z,88.99
2023-04-20T18:19:09.957Z,87.68
2023-04-20T18:21:42.783Z,88.98
2023-04-20T18:24:17.450Z,87.39
2023-04-20T18:26:50.412Z,87.36
2023-04-20T18:29:23.227Z,87.38
2023-04-20T18:31:59.408Z,87.18
2023-04-20T18:34:32.612Z,88.15
2023-04-20T18:37:05.674Z,88.85
2023-04-20T18:39:39.922Z,89.17
2023-04-20T18:42:13.151Z,89.47
2023-04-20T18:44:46.496Z,88.98
2023-04-20T18:47:20.832Z,89.66
2023-04-20T18:49:54.245Z,88.54
2023-04-20T18:52:27.163Z,87.70
2023-04-20T18:55:01.449Z,86.80
2023-04-20T18:57:34.192Z,86.36
2023-04-20T19:00:09.281Z,86.94
2023-04-20T19:02:42.747Z,86.06
2023-04-20T19:05:16.121Z,87.52
2023-04-20T19:07:49.043Z,88.25
2023-04-20T19:10:23.827Z,88.68
2023-04-20T19:12:56.906Z,89.06
2023-04-20T19:15:29.787Z,89.09
2023-04-20T19:18:02.964Z,88.09
2023-04-20T19:20:36.660Z,88.67
2023-04-20T19:23:09.584Z,88.77
2023-04-20T19:25:44.017Z,88.64
2023-04-20T19:28:16.863Z,88.82
2023-04-20T19:30:49.621Z,88.53
2023-04-20T19:33:22.551Z,88.69
2023-04-20T19:35:55.393Z,88.96
2023-04-20T19:38:31.106Z,89.25
2023-04-20T19:41:05.647Z,89.41
2023-04-20T19:43:38.683Z,89.11
2023-04-20T19:46:11.768Z,89.10
2023-04-20T19:48:44.820Z,87.34
2023-04-20T19:51:19.275Z,87.08
2023-04-20T19:53:52.408Z,88.56
2023-04-20T19:56:26.835Z,89.86
2023-04-20T19:58:59.910Z,90.54
2023-04-20T20:01:32.748Z,91.96
2023-04-20T20:04:06.170Z,93.25
2023-04-20T20:06:40.473Z,94.26
2023-04-20T20:09:13.833Z,93.86
2023-04-20T20:11:50.002Z,93.58
2023-04-20T20:14:22.905Z,92.33
2023-04-20T20:16:56.614Z,92.60
2023-04-20T20:19:29.964Z,93.17
2023-04-20T20:22:02.765Z,94.33
2023-04-20T20:24:35.655Z,96.07
2023-04-20T20:27:09.894Z,96.76
2023-04-20T20:29:42.741Z,97.65
2023-04-20T20:32:16.042Z,98.19
2023-04-20T20:34:49.219Z,97.58
2023-04-20T20:37:22.055Z,99.37
2023-04-20T20:39:54.971Z,100.00
2023-04-20T20:42:30.397Z,100.00
2023-04-20T20:45:03.486Z,100.00
2023-04-20T20:47:36.386Z,100.00
2023-04-20T20:50:10.058Z,100.00
2023-04-20T20:52:43.016Z,100.00
2023-04-20T20:55:16.256Z,100.00
2023-04-20T20:57:50.542Z,100.00
2023-04-20T21:00:23.802Z,100.00
2023-04-20T21:02:57.166Z,100.00
2023-04-20T21:05:30.290Z,100.00
2023-04-20T21:08:03.351Z,100.00
2023-04-20T21:10:36.261Z,100.00
2023-04-20T21:13:10.508Z,100.00
2023-04-20T21:15:44.418Z,100.00
2023-04-20T21:18:17.433Z,100.00
2023-04-20T21:20:50.430Z,100.00
2023-04-20T21:23:23.545Z,100.00
2023-04-20T21:25:56.376Z,100.00
2023-04-20T21:28:30.615Z,100.00
2023-04-20T21:31:03.498Z,100.00
2023-04-20T21:33:36.834Z,100.00
2023-04-20T21:36:09.948Z,100.00
2023-04-20T21:38:42.779Z,100.00
2023-04-20T21:41:15.737Z,100.00
2023-04-20T21:43:52.741Z,100.00
2023-04-20T21:46:25.677Z,100.00
2023-04-20T21:48:58.635Z,100.00
2023-04-20T21:51:32.100Z,100.00
2023-04-20T21:54:05.385Z,100.00
2023-04-20T21:56:38.558Z,100.00
2023-04-20T21:59:12.831Z,100.00
2023-04-20T22:01:45.777Z,100.00
2023-04-20T22:04:19.592Z,100.00
2023-04-20T22:06:53.430Z,100.00
2023-04-20T22:09:26.401Z,100.00
2023-04-20T22:12:01.912Z,100.00
2023-04-20T22:14:36.473Z,100.00
2023-04-20T22:17:09.549Z,100.00
2023-04-20T22:19:42.623Z,100.00
2023-04-20T22:22:15.474Z,100.00
2023-04-20T22:24:48.727Z,100.00
2023-04-20T22:27:21.770Z,100.00
2023-04-20T22:29:56.154Z,100.00
2023-04-20T22:32:29.175Z,100.00
2023-04-20T22:35:02.056Z,100.00
2023-04-20T22:37:35.003Z,100.00
2023-04-20T22:40:09.675Z,100.00
2023-04-20T22:42:42.431Z,100.00
2023-04-20T22:45:19.744Z,100.00
2023-04-20T22:47:52.825Z,100.00
2023-04-20T22:50:25.794Z,100.00
2023-04-20T22:52:58.675Z,100.00
2023-04-20T22:55:31.560Z,100.00
2023-04-20T22:58:04.466Z,100.00
2023-04-20T23:00:38.710Z,100.00
2023-04-20T23:03:11.741Z,100.00
2023-04-20T23:05:45.082Z,100.00
2023-04-20T23:08:20.661Z,100.00
2023-04-20T23:10:55.047Z,100.00
2023-04-20T23:13:28.973Z,100.00
2023-04-20T23:16:03.194Z,100.00
2023-04-20T23:18:36.368Z,100.00
2023-04-20T23:21:09.161Z,100.00
2023-04-20T23:23:42.253Z,100.00
2023-04-20T23:26:15.122Z,100.00
2023-04-20T23:28:48.057Z,100.00
2023-04-20T23:31:22.764Z,100.00
2023-04-20T23:33:55.701Z,100.00
2023-04-20T23:36:28.989Z,100.00
2023-04-20T23:39:02.036Z,100.00
2023-04-20T23:41:35.124Z,100.00
2023-04-20T23:44:08.206Z,100.00
2023-04-20T23:46:42.522Z,100.00
2023-04-20T23:49:15.661Z,100.00
2023-04-20T23:51:48.741Z,100.00
2023-04-20T23:54:21.533Z,100.00
2023-04-20T23:56:55.256Z,100.00
2023-04-20T23:59:28.202Z,100.00
